AZU099 SBSL-TFFR
Flight info
| Callsign | AZU099 |
|---|---|
| Flight time | N/A |
| Altitude | 40000 |
| Route | SAVIO UZ81 BEL UA555 OIA/N0505F320 CR09 BUXEX/N0485F400 UA555 TRAPP UL454 ETBIG UL462 OMIKI DCT LIDOS LIDOS2Z |
| Aircraft | A359/H-SDE2E3GHIJ3J4J5LM1ORWXY/LB1D1 |
Departure
| Time | N/A |
|---|---|
| Airport | Marechal Cunha Machado International Airport (SBSL) |
Arrival
| Time | 2026-04-26 22:08 |
|---|---|
| Airport | Maryse Condé International Airport (TFFR) |
| Time | Latitude | Longitude | Altitude | Speed | Heading |
|---|---|---|---|---|---|
| 2026-04-26 21:26 | 10.42660 | -57.25734 | 37971 ft | 481 kts | 316° |
| 2026-04-26 21:26 | 10.62273 | -57.44367 | 37975 ft | 483 kts | 316° |
| 2026-04-26 21:27 | 10.81950 | -57.63098 | 37974 ft | 485 kts | 315° |
| 2026-04-26 21:27 | 11.01686 | -57.81917 | 37969 ft | 487 kts | 315° |
| 2026-04-26 21:28 | 11.21459 | -58.00808 | 37987 ft | 487 kts | 315° |
| 2026-04-26 21:28 | 11.41213 | -58.19720 | 37978 ft | 486 kts | 315° |
| 2026-04-26 21:29 | 11.60904 | -58.38608 | 37991 ft | 486 kts | 315° |
| 2026-04-26 21:29 | 11.80630 | -58.57569 | 37993 ft | 488 kts | 315° |
| 2026-04-26 21:30 | 12.00233 | -58.76448 | 37981 ft | 487 kts | 315° |
| 2026-04-26 21:30 | 12.19954 | -58.95488 | 37988 ft | 488 kts | 314° |
| 2026-04-26 21:31 | 12.39701 | -59.14590 | 37988 ft | 488 kts | 314° |
| 2026-04-26 21:31 | 12.59413 | -59.33701 | 37982 ft | 488 kts | 314° |
| 2026-04-26 21:32 | 12.79130 | -59.52858 | 37969 ft | 488 kts | 314° |
| 2026-04-26 21:32 | 12.98805 | -59.72020 | 37972 ft | 487 kts | 314° |
| 2026-04-26 21:33 | 13.18457 | -59.91203 | 37983 ft | 488 kts | 314° |
| 2026-04-26 21:33 | 13.39660 | -60.08325 | 37993 ft | 494 kts | 333° |
| 2026-04-26 21:34 | 13.64863 | -60.19651 | 37995 ft | 493 kts | 333° |
| 2026-04-26 21:34 | 13.89959 | -60.31039 | 38000 ft | 493 kts | 333° |
| 2026-04-26 21:35 | 14.03587 | -60.37232 | 37998 ft | 491 kts | 333° |
| 2026-04-26 21:35 | 14.09832 | -60.40073 | 38000 ft | 490 kts | 333° |
| 2026-04-26 21:36 | 14.16074 | -60.42915 | 37998 ft | 490 kts | 333° |
| 2026-04-26 21:36 | 14.22315 | -60.45758 | 37999 ft | 491 kts | 333° |
| 2026-04-26 21:37 | 14.28570 | -60.48609 | 38001 ft | 492 kts | 333° |
| 2026-04-26 21:37 | 14.34831 | -60.51464 | 38000 ft | 493 kts | 333° |
| 2026-04-26 21:38 | 14.40880 | -60.54224 | 38003 ft | 494 kts | 333° |
| 2026-04-26 21:38 | 14.47168 | -60.57095 | 38006 ft | 495 kts | 333° |
| 2026-04-26 21:39 | 14.53467 | -60.59972 | 38007 ft | 495 kts | 333° |
| 2026-04-26 21:39 | 14.59773 | -60.62855 | 38010 ft | 496 kts | 333° |
| 2026-04-26 21:40 | 14.66085 | -60.65741 | 38011 ft | 496 kts | 333° |
| 2026-04-26 21:40 | 14.72403 | -60.68633 | 38014 ft | 497 kts | 333° |
| 2026-04-26 21:41 | 14.78726 | -60.71529 | 38012 ft | 497 kts | 333° |
| 2026-04-26 21:41 | 14.85058 | -60.74431 | 38014 ft | 498 kts | 333° |
| 2026-04-26 21:42 | 14.91388 | -60.77334 | 38016 ft | 498 kts | 333° |
| 2026-04-26 21:42 | 14.97681 | -60.80221 | 38014 ft | 498 kts | 333° |
| 2026-04-26 21:43 | 15.04046 | -60.83045 | 38014 ft | 498 kts | 336° |
| 2026-04-26 21:43 | 15.10444 | -60.85803 | 38018 ft | 498 kts | 336° |
| 2026-04-26 21:44 | 15.16797 | -60.88648 | 38018 ft | 498 kts | 335° |
| 2026-04-26 21:44 | 15.23128 | -60.91553 | 38019 ft | 497 kts | 335° |
| 2026-04-26 21:45 | 15.29447 | -60.94470 | 38018 ft | 497 kts | 335° |
| 2026-04-26 21:45 | 15.35762 | -60.97384 | 38016 ft | 497 kts | 335° |
| 2026-04-26 21:46 | 15.38899 | -60.98828 | 37588 ft | 491 kts | 335° |
| 2026-04-26 21:46 | 15.42018 | -61.00264 | 36852 ft | 491 kts | 335° |
| 2026-04-26 21:46 | 15.45141 | -61.01703 | 36080 ft | 492 kts | 335° |
| 2026-04-26 21:46 | 15.48276 | -61.03147 | 35321 ft | 493 kts | 335° |
| 2026-04-26 21:47 | 15.51399 | -61.04582 | 34546 ft | 494 kts | 335° |
| 2026-04-26 21:47 | 15.54470 | -61.06189 | 33642 ft | 494 kts | 326° |
| 2026-04-26 21:47 | 15.57128 | -61.08425 | 32733 ft | 492 kts | 314° |
| 2026-04-26 21:47 | 15.59225 | -61.11202 | 31877 ft | 489 kts | 301° |
| 2026-04-26 21:48 | 15.60867 | -61.14289 | 31053 ft | 488 kts | 298° |
| 2026-04-26 21:48 | 15.62448 | -61.17411 | 30166 ft | 490 kts | 298° |
| 2026-04-26 21:48 | 15.64063 | -61.20526 | 29226 ft | 490 kts | 299° |
| 2026-04-26 21:48 | 15.65698 | -61.23614 | 28380 ft | 487 kts | 299° |
| 2026-04-26 21:49 | 15.67337 | -61.26673 | 27645 ft | 483 kts | 299° |
| 2026-04-26 21:49 | 15.68971 | -61.29702 | 26937 ft | 479 kts | 299° |
| 2026-04-26 21:49 | 15.70595 | -61.32701 | 26229 ft | 475 kts | 299° |
| 2026-04-26 21:49 | 15.72208 | -61.35675 | 25542 ft | 471 kts | 299° |
| 2026-04-26 21:50 | 15.73807 | -61.38620 | 24860 ft | 467 kts | 299° |
| 2026-04-26 21:50 | 15.74863 | -61.40564 | 24400 ft | 465 kts | 298° |
| 2026-04-26 21:50 | 15.76976 | -61.44456 | 23475 ft | 460 kts | 298° |
| 2026-04-26 21:50 | 15.78542 | -61.47341 | 22708 ft | 457 kts | 298° |
| 2026-04-26 21:51 | 15.80091 | -61.50198 | 21991 ft | 452 kts | 298° |
| 2026-04-26 21:51 | 15.81416 | -61.52641 | 21368 ft | 447 kts | 298° |
| 2026-04-26 21:51 | 15.82022 | -61.53758 | 21098 ft | 445 kts | 298° |
| 2026-04-26 21:51 | 15.83228 | -61.55982 | 20556 ft | 442 kts | 298° |
| 2026-04-26 21:52 | 15.84506 | -61.58340 | 19985 ft | 438 kts | 298° |
| 2026-04-26 21:52 | 15.85992 | -61.61082 | 19331 ft | 433 kts | 298° |
| 2026-04-26 21:52 | 15.87462 | -61.63796 | 18674 ft | 429 kts | 298° |
| 2026-04-26 21:52 | 15.88631 | -61.65954 | 18140 ft | 426 kts | 298° |
| 2026-04-26 21:53 | 15.90014 | -61.68507 | 17452 ft | 421 kts | 298° |
| 2026-04-26 21:53 | 15.91440 | -61.71144 | 16780 ft | 416 kts | 298° |
| 2026-04-26 21:53 | 15.92830 | -61.73708 | 15945 ft | 396 kts | 299° |
| 2026-04-26 21:53 | 15.94162 | -61.76156 | 14556 ft | 385 kts | 299° |
| 2026-04-26 21:54 | 15.95485 | -61.78598 | 12990 ft | 395 kts | 299° |
| 2026-04-26 21:54 | 15.96836 | -61.81115 | 12004 ft | 399 kts | 298° |
| 2026-04-26 21:54 | 15.98168 | -61.83598 | 11549 ft | 387 kts | 298° |
| 2026-04-26 21:54 | 15.99460 | -61.85989 | 11255 ft | 371 kts | 298° |
| 2026-04-26 21:55 | 16.00703 | -61.88276 | 10972 ft | 356 kts | 299° |
| 2026-04-26 21:55 | 16.01948 | -61.90448 | 10769 ft | 343 kts | 304° |
| 2026-04-26 21:55 | 16.03612 | -61.92146 | 10597 ft | 333 kts | 328° |
| 2026-04-26 21:55 | 16.05754 | -61.92901 | 10471 ft | 322 kts | 354° |
| 2026-04-26 21:56 | 16.07959 | -61.92981 | 10226 ft | 313 kts | 1° |
| 2026-04-26 21:56 | 16.10121 | -61.92951 | 9876 ft | 310 kts | 1° |
| 2026-04-26 21:56 | 16.12269 | -61.92925 | 9453 ft | 307 kts | 1° |
| 2026-04-26 21:56 | 16.14381 | -61.92909 | 9047 ft | 305 kts | 1° |
| 2026-04-26 21:57 | 16.16493 | -61.92900 | 8636 ft | 302 kts | 1° |
| 2026-04-26 21:57 | 16.18590 | -61.92895 | 8215 ft | 301 kts | 1° |
| 2026-04-26 21:57 | 16.20675 | -61.92893 | 7805 ft | 299 kts | 1° |
| 2026-04-26 21:57 | 16.22747 | -61.92891 | 7411 ft | 297 kts | 1° |
| 2026-04-26 21:58 | 16.24809 | -61.92890 | 7009 ft | 295 kts | 1° |
| 2026-04-26 21:58 | 16.26856 | -61.92889 | 6599 ft | 294 kts | 1° |
| 2026-04-26 21:58 | 16.28895 | -61.92888 | 6191 ft | 292 kts | 1° |
| 2026-04-26 21:58 | 16.30911 | -61.92703 | 5779 ft | 290 kts | 16° |
| 2026-04-26 21:59 | 16.32639 | -61.91708 | 5396 ft | 284 kts | 48° |
| 2026-04-26 21:59 | 16.33558 | -61.90187 | 5029 ft | 276 kts | 76° |
| 2026-04-26 21:59 | 16.33747 | -61.88613 | 4795 ft | 268 kts | 98° |
| 2026-04-26 21:59 | 16.33636 | -61.87898 | 4676 ft | 265 kts | 108° |
| 2026-04-26 22:00 | 16.33497 | -61.87445 | 4593 ft | 263 kts | 115° |
| 2026-04-26 22:00 | 16.33308 | -61.87008 | 4502 ft | 261 kts | 121° |
| 2026-04-26 22:00 | 16.32510 | -61.85606 | 4207 ft | 255 kts | 119° |
| 2026-04-26 22:00 | 16.32009 | -61.83850 | 3921 ft | 252 kts | 106° |
| 2026-04-26 22:01 | 16.31680 | -61.82078 | 3669 ft | 245 kts | 104° |
| 2026-04-26 22:01 | 16.31385 | -61.80384 | 3602 ft | 230 kts | 104° |
| 2026-04-26 22:01 | 16.31142 | -61.78977 | 3603 ft | 216 kts | 105° |
| 2026-04-26 22:01 | 16.30894 | -61.77521 | 3609 ft | 194 kts | 106° |
| 2026-04-26 22:02 | 16.30664 | -61.76195 | 3616 ft | 186 kts | 106° |
| 2026-04-26 22:02 | 16.30505 | -61.75301 | 3599 ft | 186 kts | 105° |
| 2026-04-26 22:02 | 16.30245 | -61.73508 | 3590 ft | 186 kts | 103° |
| 2026-04-26 22:02 | 16.30029 | -61.72262 | 3582 ft | 168 kts | 107° |
| 2026-04-26 22:03 | 16.29818 | -61.71123 | 3473 ft | 157 kts | 108° |
| 2026-04-26 22:03 | 16.29616 | -61.70022 | 3206 ft | 154 kts | 107° |
| 2026-04-26 22:03 | 16.29418 | -61.68921 | 2918 ft | 155 kts | 107° |
| 2026-04-26 22:03 | 16.29216 | -61.67819 | 2663 ft | 153 kts | 107° |
| 2026-04-26 22:04 | 16.29023 | -61.66758 | 2435 ft | 144 kts | 107° |
| 2026-04-26 22:04 | 16.28843 | -61.65770 | 2249 ft | 134 kts | 107° |
| 2026-04-26 22:04 | 16.28673 | -61.64844 | 2070 ft | 129 kts | 107° |
| 2026-04-26 22:04 | 16.28503 | -61.63926 | 1899 ft | 129 kts | 107° |
| 2026-04-26 22:05 | 16.28334 | -61.63011 | 1723 ft | 129 kts | 107° |
| 2026-04-26 22:05 | 16.28165 | -61.62092 | 1532 ft | 129 kts | 108° |
| 2026-04-26 22:05 | 16.28053 | -61.61484 | 1409 ft | 130 kts | 108° |
| 2026-04-26 22:05 | 16.27807 | -61.60243 | 1232 ft | 132 kts | 107° |
| 2026-04-26 22:06 | 16.27696 | -61.59617 | 1131 ft | 134 kts | 106° |
| 2026-04-26 22:06 | 16.27531 | -61.58643 | 910 ft | 138 kts | 104° |
| 2026-04-26 22:06 | 16.27355 | -61.57665 | 706 ft | 137 kts | 109° |
| 2026-04-26 22:06 | 16.27153 | -61.56697 | 518 ft | 136 kts | 106° |
| 2026-04-26 22:07 | 16.26999 | -61.55736 | 311 ft | 132 kts | 105° |
| 2026-04-26 22:07 | 16.26838 | -61.54807 | 112 ft | 130 kts | 107° |
| 2026-04-26 22:07 | 16.26656 | -61.53907 | 28 ft | 117 kts | 98° |
| 2026-04-26 22:07 | 16.26532 | -61.53193 | 31 ft | 84 kts | 101° |
| 2026-04-26 22:08 | 16.26442 | -61.52708 | 27 ft | 52 kts | 101° |
| 2026-04-26 22:08 | 16.26387 | -61.52412 | 30 ft | 39 kts | 101° |
| 2026-04-26 22:08 | 16.26390 | -61.52243 | 32 ft | 9 kts | 43° |
| 2026-04-26 22:08 | 16.26452 | -61.52225 | 32 ft | 14 kts | 13° |
| 2026-04-26 22:09 | 16.26595 | -61.52196 | 27 ft | 28 kts | 11° |
| 2026-04-26 22:09 | 16.26699 | -61.52188 | 27 ft | 2 kts | 333° |
| 2026-04-26 22:09 | 16.26725 | -61.52228 | 27 ft | 13 kts | 291° |
| 2026-04-26 22:09 | 16.26755 | -61.52368 | 27 ft | 25 kts | 281° |
| 2026-04-26 22:10 | 16.26789 | -61.52543 | 27 ft | 10 kts | 292° |
| 2026-04-26 22:10 | 16.26821 | -61.52551 | 27 ft | 8 kts | 9° |
| 2026-04-26 22:10 | 16.26874 | -61.52540 | 27 ft | 0 kts | 11° |
| 2026-04-26 22:10 | 16.26882 | -61.52538 | 27 ft | 0 kts | 11° |